sensor_id;sensor_type;location;lat;lon;timestamp;P1;durP1;ratioP1;P2;durP2;ratioP2
10341;SDS011;5216;54.602;18.356;2023-03-08T00:01:17;2.07;;;1.30;;
10341;SDS011;5216;54.602;18.356;2023-03-08T00:03:44;2.23;;;1.10;;
10341;SDS011;5216;54.602;18.356;2023-03-08T00:06:12;2.93;;;1.70;;
10341;SDS011;5216;54.602;18.356;2023-03-08T00:08:39;4.53;;;1.73;;
10341;SDS011;5216;54.602;18.356;2023-03-08T00:11:06;2.70;;;1.43;;
10341;SDS011;5216;54.602;18.356;2023-03-08T00:13:33;2.97;;;1.20;;
10341;SDS011;5216;54.602;18.356;2023-03-08T00:16:02;1.97;;;1.07;;
10341;SDS011;5216;54.602;18.356;2023-03-08T00:18:44;16.90;;;1.43;;
10341;SDS011;5216;54.602;18.356;2023-03-08T00:21:29;18.17;;;1.30;;
10341;SDS011;5216;54.602;18.356;2023-03-08T00:23:56;2.60;;;1.10;;
10341;SDS011;5216;54.602;18.356;2023-03-08T00:26:22;2.47;;;1.07;;
10341;SDS011;5216;54.602;18.356;2023-03-08T00:28:49;3.57;;;1.10;;
10341;SDS011;5216;54.602;18.356;2023-03-08T00:31:16;1.13;;;0.63;;
10341;SDS011;5216;54.602;18.356;2023-03-08T00:33:43;3.23;;;0.90;;
10341;SDS011;5216;54.602;18.356;2023-03-08T00:36:16;2.13;;;0.87;;
10341;SDS011;5216;54.602;18.356;2023-03-08T00:38:45;2.30;;;0.60;;
10341;SDS011;5216;54.602;18.356;2023-03-08T00:41:12;3.13;;;0.87;;
10341;SDS011;5216;54.602;18.356;2023-03-08T00:43:38;1.80;;;1.00;;
10341;SDS011;5216;54.602;18.356;2023-03-08T00:46:07;1.00;;;0.80;;
10341;SDS011;5216;54.602;18.356;2023-03-08T00:48:34;1.77;;;0.90;;
10341;SDS011;5216;54.602;18.356;2023-03-08T00:51:01;1.50;;;1.07;;
10341;SDS011;5216;54.602;18.356;2023-03-08T00:53:28;1.90;;;1.30;;
10341;SDS011;5216;54.602;18.356;2023-03-08T00:55:57;1.03;;;0.60;;
10341;SDS011;5216;54.602;18.356;2023-03-08T00:58:26;1.77;;;1.20;;
10341;SDS011;5216;54.602;18.356;2023-03-08T01:00:53;1.43;;;0.93;;
10341;SDS011;5216;54.602;18.356;2023-03-08T01:03:20;3.37;;;1.00;;
10341;SDS011;5216;54.602;18.356;2023-03-08T01:05:51;1.93;;;1.23;;
10341;SDS011;5216;54.602;18.356;2023-03-08T01:08:18;2.37;;;0.97;;
10341;SDS011;5216;54.602;18.356;2023-03-08T01:10:55;1.37;;;0.70;;
10341;SDS011;5216;54.602;18.356;2023-03-08T01:13:29;2.33;;;1.00;;
10341;SDS011;5216;54.602;18.356;2023-03-08T01:15:56;2.93;;;0.67;;
10341;SDS011;5216;54.602;18.356;2023-03-08T01:18:23;1.03;;;0.60;;
10341;SDS011;5216;54.602;18.356;2023-03-08T01:20:56;11.73;;;1.17;;
10341;SDS011;5216;54.602;18.356;2023-03-08T01:23:24;21.67;;;2.23;;
10341;SDS011;5216;54.602;18.356;2023-03-08T01:25:58;1.93;;;0.87;;
10341;SDS011;5216;54.602;18.356;2023-03-08T01:28:24;3.47;;;1.00;;
10341;SDS011;5216;54.602;18.356;2023-03-08T01:30:51;4.27;;;1.20;;
10341;SDS011;5216;54.602;18.356;2023-03-08T01:33:18;2.93;;;0.90;;
10341;SDS011;5216;54.602;18.356;2023-03-08T01:35:46;16.43;;;1.13;;
10341;SDS011;5216;54.602;18.356;2023-03-08T01:38:16;2.30;;;1.27;;
10341;SDS011;5216;54.602;18.356;2023-03-08T01:40:42;1.53;;;0.83;;
10341;SDS011;5216;54.602;18.356;2023-03-08T01:46:07;1.27;;;0.80;;
10341;SDS011;5216;54.602;18.356;2023-03-08T01:53:56;1.10;;;0.80;;
10341;SDS011;5216;54.602;18.356;2023-03-08T01:56:24;1.60;;;0.63;;
10341;SDS011;5216;54.602;18.356;2023-03-08T01:58:51;0.73;;;0.60;;
10341;SDS011;5216;54.602;18.356;2023-03-08T02:01:18;0.63;;;0.50;;
10341;SDS011;5216;54.602;18.356;2023-03-08T02:03:45;1.00;;;0.57;;
10341;SDS011;5216;54.602;18.356;2023-03-08T02:06:13;2.33;;;0.67;;
10341;SDS011;5216;54.602;18.356;2023-03-08T02:08:40;1.63;;;0.47;;
10341;SDS011;5216;54.602;18.356;2023-03-08T02:11:07;1.87;;;0.83;;
10341;SDS011;5216;54.602;18.356;2023-03-08T02:13:34;0.87;;;0.63;;
10341;SDS011;5216;54.602;18.356;2023-03-08T02:16:01;1.83;;;0.60;;
10341;SDS011;5216;54.602;18.356;2023-03-08T02:18:28;1.57;;;0.80;;
10341;SDS011;5216;54.602;18.356;2023-03-08T02:20:54;2.50;;;0.90;;
10341;SDS011;5216;54.602;18.356;2023-03-08T02:23:24;1.33;;;0.70;;
10341;SDS011;5216;54.602;18.356;2023-03-08T02:26:01;0.57;;;0.50;;
10341;SDS011;5216;54.602;18.356;2023-03-08T02:28:28;1.47;;;0.77;;
10341;SDS011;5216;54.602;18.356;2023-03-08T02:34:27;2.23;;;0.87;;
10341;SDS011;5216;54.602;18.356;2023-03-08T02:36:53;2.10;;;0.60;;
10341;SDS011;5216;54.602;18.356;2023-03-08T02:39:20;4.50;;;1.13;;
10341;SDS011;5216;54.602;18.356;2023-03-08T02:41:46;2.13;;;0.73;;
10341;SDS011;5216;54.602;18.356;2023-03-08T02:44:13;1.77;;;0.73;;
10341;SDS011;5216;54.602;18.356;2023-03-08T02:46:39;1.40;;;0.83;;
10341;SDS011;5216;54.602;18.356;2023-03-08T02:49:06;1.97;;;0.90;;
10341;SDS011;5216;54.602;18.356;2023-03-08T02:51:32;1.50;;;0.60;;
10341;SDS011;5216;54.602;18.356;2023-03-08T02:53:59;2.00;;;0.70;;
10341;SDS011;5216;54.602;18.356;2023-03-08T02:56:25;1.87;;;0.90;;
10341;SDS011;5216;54.602;18.356;2023-03-08T02:58:52;2.10;;;1.03;;
10341;SDS011;5216;54.602;18.356;2023-03-08T03:01:19;3.23;;;0.97;;
10341;SDS011;5216;54.602;18.356;2023-03-08T03:03:46;1.00;;;0.80;;
10341;SDS011;5216;54.602;18.356;2023-03-08T03:06:13;1.33;;;0.73;;
10341;SDS011;5216;54.602;18.356;2023-03-08T03:08:40;1.13;;;0.50;;
10341;SDS011;5216;54.602;18.356;2023-03-08T03:11:14;1.67;;;0.60;;
10341;SDS011;5216;54.602;18.356;2023-03-08T03:13:41;2.47;;;0.70;;
10341;SDS011;5216;54.602;18.356;2023-03-08T03:16:08;1.43;;;0.73;;
10341;SDS011;5216;54.602;18.356;2023-03-08T03:18:35;0.93;;;0.20;;
10341;SDS011;5216;54.602;18.356;2023-03-08T03:21:03;1.97;;;0.50;;
10341;SDS011;5216;54.602;18.356;2023-03-08T03:23:29;1.17;;;0.70;;
10341;SDS011;5216;54.602;18.356;2023-03-08T03:25:56;1.23;;;0.73;;
10341;SDS011;5216;54.602;18.356;2023-03-08T03:28:22;0.80;;;0.40;;
10341;SDS011;5216;54.602;18.356;2023-03-08T03:30:49;0.60;;;0.30;;
10341;SDS011;5216;54.602;18.356;2023-03-08T03:33:15;2.10;;;0.73;;
10341;SDS011;5216;54.602;18.356;2023-03-08T03:35:42;1.07;;;0.53;;
10341;SDS011;5216;54.602;18.356;2023-03-08T03:38:09;1.53;;;0.73;;
10341;SDS011;5216;54.602;18.356;2023-03-08T03:40:35;1.37;;;0.57;;
10341;SDS011;5216;54.602;18.356;2023-03-08T03:43:02;1.57;;;0.77;;
10341;SDS011;5216;54.602;18.356;2023-03-08T03:45:28;1.03;;;0.60;;
10341;SDS011;5216;54.602;18.356;2023-03-08T03:47:55;0.90;;;0.73;;
10341;SDS011;5216;54.602;18.356;2023-03-08T03:50:22;0.93;;;0.77;;
10341;SDS011;5216;54.602;18.356;2023-03-08T03:52:48;3.23;;;1.10;;
10341;SDS011;5216;54.602;18.356;2023-03-08T03:55:15;1.70;;;1.10;;
10341;SDS011;5216;54.602;18.356;2023-03-08T03:57:44;2.60;;;1.07;;
10341;SDS011;5216;54.602;18.356;2023-03-08T04:00:11;0.90;;;0.80;;
10341;SDS011;5216;54.602;18.356;2023-03-08T04:02:38;3.13;;;0.80;;
10341;SDS011;5216;54.602;18.356;2023-03-08T04:05:04;1.10;;;0.63;;
10341;SDS011;5216;54.602;18.356;2023-03-08T04:07:31;2.77;;;0.77;;
10341;SDS011;5216;54.602;18.356;2023-03-08T04:09:58;1.07;;;0.80;;
10341;SDS011;5216;54.602;18.356;2023-03-08T04:12:25;2.07;;;0.70;;
10341;SDS011;5216;54.602;18.356;2023-03-08T04:14:52;2.27;;;0.80;;
10341;SDS011;5216;54.602;18.356;2023-03-08T04:17:18;1.37;;;0.70;;
10341;SDS011;5216;54.602;18.356;2023-03-08T04:19:46;1.67;;;0.77;;
10341;SDS011;5216;54.602;18.356;2023-03-08T04:22:13;3.03;;;1.07;;
10341;SDS011;5216;54.602;18.356;2023-03-08T04:24:58;1.27;;;0.90;;
10341;SDS011;5216;54.602;18.356;2023-03-08T04:27:24;1.97;;;1.03;;
10341;SDS011;5216;54.602;18.356;2023-03-08T04:29:51;5.23;;;1.00;;
10341;SDS011;5216;54.602;18.356;2023-03-08T04:32:18;2.20;;;0.80;;
10341;SDS011;5216;54.602;18.356;2023-03-08T04:34:44;2.33;;;0.53;;
10341;SDS011;5216;54.602;18.356;2023-03-08T04:37:11;5.10;;;0.90;;
10341;SDS011;5216;54.602;18.356;2023-03-08T04:39:38;2.20;;;1.00;;
10341;SDS011;5216;54.602;18.356;2023-03-08T04:42:05;1.10;;;0.80;;
10341;SDS011;5216;54.602;18.356;2023-03-08T04:44:31;1.60;;;1.00;;
10341;SDS011;5216;54.602;18.356;2023-03-08T04:46:58;3.40;;;0.87;;
10341;SDS011;5216;54.602;18.356;2023-03-08T04:49:25;1.43;;;0.70;;
10341;SDS011;5216;54.602;18.356;2023-03-08T04:52:04;3.53;;;1.00;;
10341;SDS011;5216;54.602;18.356;2023-03-08T04:54:30;2.33;;;1.10;;
10341;SDS011;5216;54.602;18.356;2023-03-08T04:57:06;1.13;;;1.00;;
10341;SDS011;5216;54.602;18.356;2023-03-08T04:59:32;3.73;;;1.03;;
10341;SDS011;5216;54.602;18.356;2023-03-08T05:01:59;2.00;;;1.10;;
10341;SDS011;5216;54.602;18.356;2023-03-08T05:04:25;2.93;;;0.50;;
10341;SDS011;5216;54.602;18.356;2023-03-08T05:06:52;1.27;;;0.93;;
10341;SDS011;5216;54.602;18.356;2023-03-08T05:09:19;2.10;;;1.20;;
10341;SDS011;5216;54.602;18.356;2023-03-08T05:11:45;1.60;;;1.00;;
10341;SDS011;5216;54.602;18.356;2023-03-08T05:14:12;1.73;;;0.80;;
10341;SDS011;5216;54.602;18.356;2023-03-08T05:16:38;14.77;;;1.47;;
10341;SDS011;5216;54.602;18.356;2023-03-08T05:19:05;2.67;;;1.10;;
10341;SDS011;5216;54.602;18.356;2023-03-08T05:21:43;2.33;;;1.00;;
10341;SDS011;5216;54.602;18.356;2023-03-08T05:24:10;2.13;;;1.00;;
10341;SDS011;5216;54.602;18.356;2023-03-08T05:26:37;1.80;;;0.93;;
10341;SDS011;5216;54.602;18.356;2023-03-08T05:29:04;3.73;;;1.37;;
10341;SDS011;5216;54.602;18.356;2023-03-08T05:31:33;3.40;;;1.07;;
10341;SDS011;5216;54.602;18.356;2023-03-08T05:34:02;2.93;;;1.00;;
10341;SDS011;5216;54.602;18.356;2023-03-08T05:40:12;2.47;;;0.87;;
10341;SDS011;5216;54.602;18.356;2023-03-08T05:42:38;2.17;;;1.10;;
10341;SDS011;5216;54.602;18.356;2023-03-08T05:45:05;1.53;;;1.27;;
10341;SDS011;5216;54.602;18.356;2023-03-08T05:47:32;3.63;;;1.10;;
10341;SDS011;5216;54.602;18.356;2023-03-08T05:49:58;3.40;;;1.00;;
10341;SDS011;5216;54.602;18.356;2023-03-08T05:52:25;2.10;;;1.00;;
10341;SDS011;5216;54.602;18.356;2023-03-08T05:54:51;4.43;;;1.27;;
10341;SDS011;5216;54.602;18.356;2023-03-08T05:57:18;2.77;;;0.87;;
10341;SDS011;5216;54.602;18.356;2023-03-08T05:59:45;2.10;;;0.87;;
10341;SDS011;5216;54.602;18.356;2023-03-08T06:02:11;0.80;;;0.80;;
10341;SDS011;5216;54.602;18.356;2023-03-08T06:08:12;3.30;;;2.07;;
10341;SDS011;5216;54.602;18.356;2023-03-08T06:10:39;2.30;;;1.07;;
10341;SDS011;5216;54.602;18.356;2023-03-08T06:13:09;2.57;;;1.20;;
10341;SDS011;5216;54.602;18.356;2023-03-08T06:15:35;2.37;;;1.30;;
10341;SDS011;5216;54.602;18.356;2023-03-08T06:18:02;2.27;;;1.10;;
10341;SDS011;5216;54.602;18.356;2023-03-08T06:20:29;3.97;;;1.50;;
10341;SDS011;5216;54.602;18.356;2023-03-08T06:22:55;2.90;;;1.90;;
10341;SDS011;5216;54.602;18.356;2023-03-08T06:25:22;3.07;;;1.87;;
10341;SDS011;5216;54.602;18.356;2023-03-08T06:28:00;3.03;;;1.23;;
10341;SDS011;5216;54.602;18.356;2023-03-08T06:30:27;5.40;;;0.87;;
10341;SDS011;5216;54.602;18.356;2023-03-08T06:32:53;2.70;;;1.00;;
10341;SDS011;5216;54.602;18.356;2023-03-08T06:35:32;3.10;;;1.10;;
10341;SDS011;5216;54.602;18.356;2023-03-08T06:37:59;4.20;;;1.90;;
10341;SDS011;5216;54.602;18.356;2023-03-08T06:40:25;3.00;;;1.70;;
10341;SDS011;5216;54.602;18.356;2023-03-08T06:42:52;3.30;;;2.20;;
10341;SDS011;5216;54.602;18.356;2023-03-08T06:45:19;3.17;;;1.97;;
10341;SDS011;5216;54.602;18.356;2023-03-08T06:47:45;2.70;;;1.97;;
10341;SDS011;5216;54.602;18.356;2023-03-08T06:50:12;1.77;;;1.47;;
10341;SDS011;5216;54.602;18.356;2023-03-08T06:52:44;3.10;;;1.37;;
10341;SDS011;5216;54.602;18.356;2023-03-08T06:55:19;1.63;;;1.17;;
10341;SDS011;5216;54.602;18.356;2023-03-08T06:57:46;3.47;;;0.80;;
10341;SDS011;5216;54.602;18.356;2023-03-08T07:00:13;4.50;;;1.20;;
10341;SDS011;5216;54.602;18.356;2023-03-08T07:02:39;2.57;;;1.53;;
10341;SDS011;5216;54.602;18.356;2023-03-08T07:05:06;2.60;;;1.27;;
10341;SDS011;5216;54.602;18.356;2023-03-08T07:07:33;2.23;;;1.17;;
10341;SDS011;5216;54.602;18.356;2023-03-08T07:10:20;3.30;;;1.83;;
10341;SDS011;5216;54.602;18.356;2023-03-08T07:12:48;2.70;;;1.80;;
10341;SDS011;5216;54.602;18.356;2023-03-08T07:15:18;2.37;;;1.70;;
10341;SDS011;5216;54.602;18.356;2023-03-08T07:17:45;2.30;;;1.60;;
10341;SDS011;5216;54.602;18.356;2023-03-08T07:20:12;2.97;;;1.40;;
10341;SDS011;5216;54.602;18.356;2023-03-08T07:22:40;1.70;;;1.20;;
10341;SDS011;5216;54.602;18.356;2023-03-08T07:25:09;2.40;;;1.70;;
10341;SDS011;5216;54.602;18.356;2023-03-08T07:27:36;3.83;;;2.87;;
10341;SDS011;5216;54.602;18.356;2023-03-08T07:30:02;2.60;;;2.10;;
10341;SDS011;5216;54.602;18.356;2023-03-08T07:32:29;2.77;;;1.10;;
10341;SDS011;5216;54.602;18.356;2023-03-08T07:34:56;4.27;;;3.00;;
10341;SDS011;5216;54.602;18.356;2023-03-08T07:37:23;2.60;;;1.53;;
10341;SDS011;5216;54.602;18.356;2023-03-08T07:39:49;2.37;;;1.27;;
10341;SDS011;5216;54.602;18.356;2023-03-08T07:42:22;5.50;;;3.63;;
10341;SDS011;5216;54.602;18.356;2023-03-08T07:44:49;3.50;;;2.10;;
10341;SDS011;5216;54.602;18.356;2023-03-08T07:47:18;3.43;;;2.00;;
10341;SDS011;5216;54.602;18.356;2023-03-08T07:49:45;2.07;;;1.73;;
10341;SDS011;5216;54.602;18.356;2023-03-08T07:52:14;2.70;;;1.10;;
10341;SDS011;5216;54.602;18.356;2023-03-08T07:54:45;1.70;;;1.20;;
10341;SDS011;5216;54.602;18.356;2023-03-08T07:57:12;2.27;;;1.37;;
10341;SDS011;5216;54.602;18.356;2023-03-08T07:59:39;3.33;;;1.60;;
10341;SDS011;5216;54.602;18.356;2023-03-08T08:02:09;4.30;;;2.57;;
10341;SDS011;5216;54.602;18.356;2023-03-08T08:04:36;2.13;;;1.07;;
10341;SDS011;5216;54.602;18.356;2023-03-08T08:07:03;1.93;;;1.47;;
10341;SDS011;5216;54.602;18.356;2023-03-08T08:09:30;1.17;;;0.97;;
10341;SDS011;5216;54.602;18.356;2023-03-08T08:12:15;2.07;;;1.10;;
10341;SDS011;5216;54.602;18.356;2023-03-08T08:14:42;2.77;;;1.60;;
10341;SDS011;5216;54.602;18.356;2023-03-08T08:17:09;3.93;;;1.50;;
10341;SDS011;5216;54.602;18.356;2023-03-08T08:19:36;3.43;;;1.30;;
10341;SDS011;5216;54.602;18.356;2023-03-08T08:22:02;2.80;;;1.30;;
10341;SDS011;5216;54.602;18.356;2023-03-08T08:31:39;2.30;;;1.50;;
10341;SDS011;5216;54.602;18.356;2023-03-08T08:34:08;1.87;;;1.37;;
10341;SDS011;5216;54.602;18.356;2023-03-08T08:36:35;1.83;;;1.30;;
10341;SDS011;5216;54.602;18.356;2023-03-08T08:39:02;1.53;;;1.20;;
10341;SDS011;5216;54.602;18.356;2023-03-08T08:41:28;2.37;;;1.50;;
10341;SDS011;5216;54.602;18.356;2023-03-08T08:43:57;3.30;;;1.77;;
10341;SDS011;5216;54.602;18.356;2023-03-08T08:46:25;1.93;;;0.90;;
10341;SDS011;5216;54.602;18.356;2023-03-08T08:48:54;1.53;;;0.93;;
10341;SDS011;5216;54.602;18.356;2023-03-08T08:51:20;1.60;;;1.20;;
10341;SDS011;5216;54.602;18.356;2023-03-08T08:53:47;9.63;;;1.37;;
10341;SDS011;5216;54.602;18.356;2023-03-08T08:56:19;2.37;;;1.70;;
10341;SDS011;5216;54.602;18.356;2023-03-08T08:58:52;4.40;;;2.70;;
10341;SDS011;5216;54.602;18.356;2023-03-08T09:01:23;2.83;;;1.20;;
10341;SDS011;5216;54.602;18.356;2023-03-08T09:03:50;1.23;;;0.93;;
10341;SDS011;5216;54.602;18.356;2023-03-08T09:06:18;2.47;;;1.20;;
10341;SDS011;5216;54.602;18.356;2023-03-08T09:08:51;6.03;;;4.30;;
10341;SDS011;5216;54.602;18.356;2023-03-08T09:11:18;2.17;;;1.20;;
10341;SDS011;5216;54.602;18.356;2023-03-08T09:13:45;2.37;;;1.30;;
10341;SDS011;5216;54.602;18.356;2023-03-08T09:16:15;1.77;;;1.30;;
10341;SDS011;5216;54.602;18.356;2023-03-08T09:18:42;6.77;;;1.37;;
10341;SDS011;5216;54.602;18.356;2023-03-08T09:21:09;1.17;;;0.90;;
10341;SDS011;5216;54.602;18.356;2023-03-08T09:23:36;1.43;;;1.07;;
10341;SDS011;5216;54.602;18.356;2023-03-08T09:26:03;1.93;;;1.20;;
10341;SDS011;5216;54.602;18.356;2023-03-08T09:28:31;2.80;;;1.45;;
10341;SDS011;5216;54.602;18.356;2023-03-08T09:30:58;1.77;;;0.80;;
10341;SDS011;5216;54.602;18.356;2023-03-08T09:33:24;1.17;;;0.80;;
10341;SDS011;5216;54.602;18.356;2023-03-08T09:35:57;1.67;;;1.00;;
10341;SDS011;5216;54.602;18.356;2023-03-08T09:38:25;3.00;;;1.00;;
10341;SDS011;5216;54.602;18.356;2023-03-08T09:40:57;3.87;;;0.83;;
10341;SDS011;5216;54.602;18.356;2023-03-08T09:43:35;2.10;;;0.93;;
10341;SDS011;5216;54.602;18.356;2023-03-08T09:46:08;1.37;;;0.70;;
10341;SDS011;5216;54.602;18.356;2023-03-08T09:48:38;2.40;;;0.73;;
10341;SDS011;5216;54.602;18.356;2023-03-08T09:51:07;1.00;;;0.70;;
10341;SDS011;5216;54.602;18.356;2023-03-08T09:53:38;1.97;;;0.80;;
10341;SDS011;5216;54.602;18.356;2023-03-08T09:56:10;5.00;;;1.30;;
10341;SDS011;5216;54.602;18.356;2023-03-08T09:58:42;5.07;;;1.30;;
10341;SDS011;5216;54.602;18.356;2023-03-08T10:03:43;4.10;;;1.40;;
10341;SDS011;5216;54.602;18.356;2023-03-08T10:08:57;1.57;;;0.90;;
10341;SDS011;5216;54.602;18.356;2023-03-08T10:11:34;1.00;;;0.60;;
10341;SDS011;5216;54.602;18.356;2023-03-08T10:14:05;1.80;;;0.97;;
10341;SDS011;5216;54.602;18.356;2023-03-08T10:16:35;1.97;;;1.10;;
10341;SDS011;5216;54.602;18.356;2023-03-08T10:19:04;2.07;;;1.07;;
10341;SDS011;5216;54.602;18.356;2023-03-08T10:21:32;2.80;;;1.40;;
10341;SDS011;5216;54.602;18.356;2023-03-08T10:26:37;1.83;;;1.13;;
10341;SDS011;5216;54.602;18.356;2023-03-08T10:32:46;2.70;;;1.53;;
10341;SDS011;5216;54.602;18.356;2023-03-08T10:35:13;2.33;;;1.20;;
10341;SDS011;5216;54.602;18.356;2023-03-08T10:37:40;2.57;;;1.40;;
10341;SDS011;5216;54.602;18.356;2023-03-08T10:40:08;1.80;;;1.47;;
10341;SDS011;5216;54.602;18.356;2023-03-08T10:42:35;2.87;;;1.90;;
10341;SDS011;5216;54.602;18.356;2023-03-08T10:45:15;2.43;;;1.20;;
10341;SDS011;5216;54.602;18.356;2023-03-08T10:47:56;4.87;;;1.20;;
10341;SDS011;5216;54.602;18.356;2023-03-08T10:50:25;2.40;;;1.27;;
10341;SDS011;5216;54.602;18.356;2023-03-08T10:52:51;1.60;;;0.60;;
10341;SDS011;5216;54.602;18.356;2023-03-08T10:55:20;2.47;;;1.10;;
10341;SDS011;5216;54.602;18.356;2023-03-08T11:04:00;3.97;;;1.20;;
10341;SDS011;5216;54.602;18.356;2023-03-08T11:06:27;4.30;;;1.30;;
10341;SDS011;5216;54.602;18.356;2023-03-08T11:08:55;2.10;;;1.63;;
10341;SDS011;5216;54.602;18.356;2023-03-08T11:11:22;10.77;;;2.07;;
10341;SDS011;5216;54.602;18.356;2023-03-08T11:13:49;2.60;;;1.60;;
10341;SDS011;5216;54.602;18.356;2023-03-08T11:16:21;1.23;;;0.90;;
10341;SDS011;5216;54.602;18.356;2023-03-08T11:19:01;2.57;;;1.43;;
10341;SDS011;5216;54.602;18.356;2023-03-08T11:24:16;2.43;;;1.00;;
10341;SDS011;5216;54.602;18.356;2023-03-08T11:26:57;4.70;;;2.07;;
10341;SDS011;5216;54.602;18.356;2023-03-08T11:29:28;6.50;;;3.60;;
10341;SDS011;5216;54.602;18.356;2023-03-08T11:32:01;4.33;;;3.50;;
10341;SDS011;5216;54.602;18.356;2023-03-08T11:34:36;3.20;;;2.37;;
10341;SDS011;5216;54.602;18.356;2023-03-08T11:37:10;3.33;;;2.00;;
10341;SDS011;5216;54.602;18.356;2023-03-08T11:39:41;3.27;;;1.93;;
10341;SDS011;5216;54.602;18.356;2023-03-08T11:57:51;4.83;;;3.30;;
10341;SDS011;5216;54.602;18.356;2023-03-08T12:00:27;3.33;;;2.00;;
10341;SDS011;5216;54.602;18.356;2023-03-08T12:02:56;2.03;;;1.60;;
10341;SDS011;5216;54.602;18.356;2023-03-08T12:05:34;3.43;;;2.53;;
10341;SDS011;5216;54.602;18.356;2023-03-08T12:08:09;2.70;;;1.80;;
10341;SDS011;5216;54.602;18.356;2023-03-08T12:13:32;2.53;;;1.50;;
10341;SDS011;5216;54.602;18.356;2023-03-08T12:16:16;4.93;;;3.20;;
10341;SDS011;5216;54.602;18.356;2023-03-08T12:18:55;2.50;;;2.00;;
10341;SDS011;5216;54.602;18.356;2023-03-08T12:26:53;3.23;;;1.87;;
10341;SDS011;5216;54.602;18.356;2023-03-08T12:29:23;3.97;;;1.97;;
10341;SDS011;5216;54.602;18.356;2023-03-08T12:31:51;2.97;;;1.90;;
10341;SDS011;5216;54.602;18.356;2023-03-08T12:37:02;1.47;;;1.03;;
10341;SDS011;5216;54.602;18.356;2023-03-08T12:39:33;2.60;;;1.20;;
10341;SDS011;5216;54.602;18.356;2023-03-08T12:42:10;2.20;;;1.67;;
10341;SDS011;5216;54.602;18.356;2023-03-08T12:44:39;5.20;;;1.90;;
10341;SDS011;5216;54.602;18.356;2023-03-08T12:49:42;2.80;;;2.03;;
10341;SDS011;5216;54.602;18.356;2023-03-08T12:54:44;2.67;;;2.00;;
10341;SDS011;5216;54.602;18.356;2023-03-08T12:57:14;4.00;;;1.80;;
10341;SDS011;5216;54.602;18.356;2023-03-08T12:59:44;5.87;;;2.90;;
10341;SDS011;5216;54.602;18.356;2023-03-08T13:04:48;5.57;;;3.03;;
10341;SDS011;5216;54.602;18.356;2023-03-08T13:14:45;2.50;;;1.80;;
10341;SDS011;5216;54.602;18.356;2023-03-08T13:19:57;2.80;;;1.80;;
10341;SDS011;5216;54.602;18.356;2023-03-08T13:22:30;4.67;;;2.03;;
10341;SDS011;5216;54.602;18.356;2023-03-08T13:25:24;1.17;;;0.90;;
10341;SDS011;5216;54.602;18.356;2023-03-08T13:28:02;0.87;;;0.70;;
10341;SDS011;5216;54.602;18.356;2023-03-08T13:32:59;3.17;;;1.17;;
10341;SDS011;5216;54.602;18.356;2023-03-08T13:35:26;2.33;;;1.27;;
10341;SDS011;5216;54.602;18.356;2023-03-08T13:37:54;2.83;;;1.40;;
10341;SDS011;5216;54.602;18.356;2023-03-08T13:40:21;1.63;;;1.10;;
10341;SDS011;5216;54.602;18.356;2023-03-08T13:43:12;4.00;;;1.60;;
10341;SDS011;5216;54.602;18.356;2023-03-08T13:45:38;5.90;;;2.40;;
10341;SDS011;5216;54.602;18.356;2023-03-08T13:48:07;3.93;;;2.30;;
10341;SDS011;5216;54.602;18.356;2023-03-08T13:50:35;4.17;;;3.00;;
10341;SDS011;5216;54.602;18.356;2023-03-08T13:53:03;6.60;;;3.00;;
10341;SDS011;5216;54.602;18.356;2023-03-08T13:55:34;4.80;;;3.07;;
10341;SDS011;5216;54.602;18.356;2023-03-08T14:03:44;3.20;;;2.03;;
10341;SDS011;5216;54.602;18.356;2023-03-08T14:08:44;3.77;;;2.70;;
10341;SDS011;5216;54.602;18.356;2023-03-08T14:11:15;5.30;;;4.27;;
10341;SDS011;5216;54.602;18.356;2023-03-08T14:13:44;3.90;;;2.27;;
10341;SDS011;5216;54.602;18.356;2023-03-08T14:16:30;3.03;;;1.80;;
10341;SDS011;5216;54.602;18.356;2023-03-08T14:18:58;2.33;;;1.50;;
10341;SDS011;5216;54.602;18.356;2023-03-08T14:21:25;4.13;;;1.60;;
10341;SDS011;5216;54.602;18.356;2023-03-08T14:23:54;3.60;;;2.33;;
10341;SDS011;5216;54.602;18.356;2023-03-08T14:26:37;4.33;;;3.53;;
10341;SDS011;5216;54.602;18.356;2023-03-08T14:29:19;6.33;;;3.30;;
10341;SDS011;5216;54.602;18.356;2023-03-08T14:34:31;12.83;;;11.33;;
10341;SDS011;5216;54.602;18.356;2023-03-08T14:37:00;4.33;;;2.67;;
10341;SDS011;5216;54.602;18.356;2023-03-08T14:39:30;2.00;;;1.60;;
10341;SDS011;5216;54.602;18.356;2023-03-08T14:42:06;2.97;;;1.70;;
10341;SDS011;5216;54.602;18.356;2023-03-08T14:44:34;2.67;;;1.70;;
10341;SDS011;5216;54.602;18.356;2023-03-08T14:47:34;4.43;;;2.33;;
10341;SDS011;5216;54.602;18.356;2023-03-08T14:50:00;5.33;;;2.47;;
10341;SDS011;5216;54.602;18.356;2023-03-08T14:52:31;2.27;;;1.63;;
10341;SDS011;5216;54.602;18.356;2023-03-08T14:55:00;4.13;;;2.63;;
10341;SDS011;5216;54.602;18.356;2023-03-08T14:57:28;3.57;;;2.27;;
10341;SDS011;5216;54.602;18.356;2023-03-08T15:00:00;4.63;;;2.07;;
10341;SDS011;5216;54.602;18.356;2023-03-08T15:02:28;3.93;;;2.40;;
10341;SDS011;5216;54.602;18.356;2023-03-08T15:04:54;4.17;;;2.73;;
10341;SDS011;5216;54.602;18.356;2023-03-08T15:07:21;8.53;;;3.23;;
10341;SDS011;5216;54.602;18.356;2023-03-08T15:09:54;3.67;;;2.47;;
10341;SDS011;5216;54.602;18.356;2023-03-08T15:12:21;5.07;;;3.03;;
10341;SDS011;5216;54.602;18.356;2023-03-08T15:14:48;4.77;;;2.30;;
10341;SDS011;5216;54.602;18.356;2023-03-08T15:17:14;5.73;;;2.00;;
10341;SDS011;5216;54.602;18.356;2023-03-08T15:19:41;4.90;;;1.83;;
10341;SDS011;5216;54.602;18.356;2023-03-08T15:22:09;5.40;;;1.50;;
10341;SDS011;5216;54.602;18.356;2023-03-08T15:24:39;2.47;;;1.30;;
10341;SDS011;5216;54.602;18.356;2023-03-08T15:27:05;1.73;;;1.00;;
10341;SDS011;5216;54.602;18.356;2023-03-08T15:29:32;1.67;;;1.43;;
10341;SDS011;5216;54.602;18.356;2023-03-08T15:31:59;2.93;;;1.90;;
10341;SDS011;5216;54.602;18.356;2023-03-08T15:34:28;8.17;;;6.10;;
10341;SDS011;5216;54.602;18.356;2023-03-08T15:36:55;3.27;;;2.87;;
10341;SDS011;5216;54.602;18.356;2023-03-08T15:39:22;3.70;;;2.80;;
10341;SDS011;5216;54.602;18.356;2023-03-08T15:41:48;3.70;;;2.57;;
10341;SDS011;5216;54.602;18.356;2023-03-08T15:44:21;3.77;;;1.57;;
10341;SDS011;5216;54.602;18.356;2023-03-08T15:46:47;5.80;;;2.47;;
10341;SDS011;5216;54.602;18.356;2023-03-08T15:49:17;5.03;;;2.90;;
10341;SDS011;5216;54.602;18.356;2023-03-08T15:51:44;5.23;;;3.50;;
10341;SDS011;5216;54.602;18.356;2023-03-08T15:54:26;7.03;;;5.60;;
10341;SDS011;5216;54.602;18.356;2023-03-08T15:56:53;5.57;;;3.20;;
10341;SDS011;5216;54.602;18.356;2023-03-08T15:59:20;6.93;;;3.43;;
10341;SDS011;5216;54.602;18.356;2023-03-08T16:01:46;6.50;;;4.50;;
10341;SDS011;5216;54.602;18.356;2023-03-08T16:04:13;5.50;;;3.40;;
10341;SDS011;5216;54.602;18.356;2023-03-08T16:10:39;4.90;;;3.90;;
10341;SDS011;5216;54.602;18.356;2023-03-08T16:13:09;6.67;;;3.70;;
10341;SDS011;5216;54.602;18.356;2023-03-08T16:15:40;8.87;;;7.40;;
10341;SDS011;5216;54.602;18.356;2023-03-08T16:18:06;4.87;;;3.47;;
10341;SDS011;5216;54.602;18.356;2023-03-08T16:20:33;6.17;;;4.87;;
10341;SDS011;5216;54.602;18.356;2023-03-08T16:23:05;7.63;;;4.20;;
10341;SDS011;5216;54.602;18.356;2023-03-08T16:25:31;9.63;;;5.90;;
10341;SDS011;5216;54.602;18.356;2023-03-08T16:27:58;7.47;;;4.93;;
10341;SDS011;5216;54.602;18.356;2023-03-08T16:30:25;12.10;;;9.97;;
10341;SDS011;5216;54.602;18.356;2023-03-08T16:32:57;18.40;;;12.27;;
10341;SDS011;5216;54.602;18.356;2023-03-08T16:35:26;15.87;;;13.63;;
10341;SDS011;5216;54.602;18.356;2023-03-08T16:37:56;13.07;;;10.70;;
10341;SDS011;5216;54.602;18.356;2023-03-08T16:40:22;11.27;;;9.43;;
10341;SDS011;5216;54.602;18.356;2023-03-08T16:43:00;17.47;;;14.30;;
10341;SDS011;5216;54.602;18.356;2023-03-08T16:45:27;8.03;;;6.63;;
10341;SDS011;5216;54.602;18.356;2023-03-08T16:47:53;17.43;;;12.67;;